Time;durP1;ratioP1;P1;durP2;ratioP2;P2;SDS_P1;SDS_P2;PMS_P1;PMS_P2;Temp;Humidity;BMP_temperature;BMP_pressure;BME280_temperature;BME280_humidity;BME280_pressure;Samples;Min_cycle;Max_cycle;Signal;HPM_P1;HPM_P2
2021/01/02 00:01:32;;;;;;;11.48;6.85;;;;;;;3.43;88.06;99321.58;1707697;84;21200;-69
2021/01/02 00:04:20;;;;;;;10.35;6.53;;;;;;;3.43;88.23;99332.86;1706535;83;21341;-69
2021/01/02 00:07:03;;;;;;;10.40;7.05;;;;;;;3.44;87.81;99338.92;1712050;84;21783;-69
2021/01/02 00:09:33;;;;;;;11.25;6.37;;;;;;;3.38;86.85;99339.38;1705541;84;21203;-69
2021/01/02 00:12:46;;;;;;;10.45;6.60;;;;;;;3.32;86.78;99341.12;1654584;84;21214;-69
2021/01/02 00:15:40;;;;;;;10.43;5.92;;;;;;;3.30;86.08;99345.16;1706215;84;21221;-69
2021/01/02 00:18:27;;;;;;;9.70;6.35;;;;;;;3.25;86.29;99351.17;1619317;87;21188;-69
2021/01/02 00:21:26;;;;;;;11.38;6.50;;;;;;;3.22;86.07;99350.93;1646595;86;21233;-69
2021/01/02 00:24:45;;;;;;;8.73;5.83;;;;;;;3.21;86.14;99350.55;1892230;75;23504;-68
2021/01/02 00:27:30;;;;;;;8.75;6.12;;;;;;;3.17;86.78;99358.73;1777751;80;21171;-68
2021/01/02 00:30:13;;;;;;;10.65;6.42;;;;;;;3.19;86.80;99360.28;1775206;80;21139;-68
2021/01/02 00:33:02;;;;;;;8.15;5.67;;;;;;;3.18;85.49;99370.39;1807837;78;21294;-68
2021/01/02 00:35:29;;;;;;;9.03;5.87;;;;;;;3.10;83.89;99374.00;1770265;80;21609;-68
2021/01/02 00:38:08;;;;;;;8.98;6.10;;;;;;;3.08;84.78;99374.58;1791357;79;21321;-68
2021/01/02 00:40:38;;;;;;;8.25;5.80;;;;;;;3.08;84.55;99381.11;1762839;80;21159;-70
2021/01/02 00:43:06;;;;;;;8.65;6.08;;;;;;;3.05;84.22;99385.27;1751982;79;21156;-70
2021/01/02 00:45:36;;;;;;;7.47;5.53;;;;;;;3.02;82.97;99386.77;1739990;79;21607;-70
2021/01/02 00:48:06;;;;;;;8.43;5.33;;;;;;;2.94;82.83;99381.23;1772832;79;21297;-70
2021/01/02 00:50:33;;;;;;;8.05;5.10;;;;;;;2.91;82.82;99390.95;1698709;81;21196;-70
2021/01/02 00:53:04;;;;;;;10.05;5.55;;;;;;;2.86;82.87;99389.60;1764369;81;21317;-70
2021/01/02 00:55:51;;;;;;;7.45;5.22;;;;;;;2.79;83.08;99400.13;1767611;81;21228;-70
2021/01/02 00:58:59;;;;;;;9.50;5.80;;;;;;;2.70;83.70;99397.19;1765169;81;21235;-70
2021/01/02 01:01:42;;;;;;;8.80;5.33;;;;;;;2.64;82.76;99405.94;1768245;81;21202;-70
2021/01/02 01:05:05;;;;;;;8.98;6.00;;;;;;;2.63;84.17;99399.02;1798283;78;23042;-69
2021/01/02 01:07:34;;;;;;;8.35;5.42;;;;;;;2.60;84.05;99405.75;1779070;80;21155;-68
2021/01/02 01:10:07;;;;;;;9.30;5.58;;;;;;;2.58;83.72;99415.46;1728071;81;21332;-68
2021/01/02 01:12:42;;;;;;;7.78;5.72;;;;;;;2.56;84.28;99410.82;1707814;82;21120;-68
2021/01/02 01:15:11;;;;;;;7.75;5.45;;;;;;;2.57;83.69;99415.11;1683234;83;21150;-68
2021/01/02 01:17:58;;;;;;;10.18;6.00;;;;;;;2.51;84.21;99411.97;1755825;81;21144;-68
2021/01/02 01:20:26;;;;;;;9.00;6.10;;;;;;;2.45;84.44;99412.39;1728407;83;21261;-68
2021/01/02 01:23:23;;;;;;;8.20;5.55;;;;;;;2.40;84.51;99425.38;1742301;81;21580;-71
2021/01/02 01:26:05;;;;;;;8.85;5.45;;;;;;;2.39;84.52;99426.31;1741837;81;21294;-68
2021/01/02 01:28:33;;;;;;;8.40;5.73;;;;;;;2.37;85.03;99425.58;1725634;83;21183;-70
2021/01/02 01:31:02;;;;;;;10.13;6.08;;;;;;;2.36;84.70;99418.22;1646894;83;21168;-70
2021/01/02 01:33:30;;;;;;;11.08;5.60;;;;;;;2.35;84.16;99430.06;1692702;82;21326;-70
2021/01/02 01:36:02;;;;;;;9.20;5.62;;;;;;;2.33;84.04;99429.69;1683250;83;21170;-68
2021/01/02 01:38:30;;;;;;;10.63;6.60;;;;;;;2.35;83.85;99431.37;1715568;82;21620;-69
2021/01/02 01:41:15;;;;;;;8.93;5.97;;;;;;;2.33;84.17;99440.12;1721814;82;21194;-68
2021/01/02 01:44:06;;;;;;;9.13;5.58;;;;;;;2.33;84.27;99438.81;1750114;81;21179;-69
2021/01/02 01:46:53;;;;;;;8.68;5.80;;;;;;;2.35;84.05;99443.11;1712319;81;21160;-70
2021/01/02 01:49:41;;;;;;;8.75;5.60;;;;;;;2.39;83.79;99443.27;1700477;84;21186;-68
2021/01/02 01:52:16;;;;;;;9.00;6.20;;;;;;;2.41;83.12;99450.05;1710613;83;21187;-69
2021/01/02 01:55:07;;;;;;;9.78;6.40;;;;;;;2.38;82.51;99450.27;1717275;83;22801;-70
2021/01/02 01:57:40;;;;;;;10.32;6.20;;;;;;;2.38;82.00;99460.72;1713518;83;21316;-70
2021/01/02 02:00:14;;;;;;;9.48;5.92;;;;;;;2.33;81.55;99457.56;1704812;83;21317;-70
2021/01/02 02:02:52;;;;;;;8.95;5.58;;;;;;;2.32;80.75;99459.34;1724728;83;21247;-70
2021/01/02 02:05:22;;;;;;;7.87;5.15;;;;;;;2.30;80.79;99469.50;1706644;83;21186;-70
2021/01/02 02:08:05;;;;;;;8.33;5.42;;;;;;;2.26;80.98;99473.25;1731745;83;21766;-70
2021/01/02 02:10:47;;;;;;;9.08;5.62;;;;;;;2.22;81.08;99477.83;1699952;84;21186;-70
2021/01/02 02:13:21;;;;;;;7.80;5.17;;;;;;;2.16;80.49;99483.93;1719006;82;21222;-70
2021/01/02 02:15:54;;;;;;;9.20;5.20;;;;;;;2.10;80.36;99478.64;1673745;84;21324;-70
2021/01/02 02:18:29;;;;;;;10.32;5.65;;;;;;;2.08;79.63;99485.26;1710706;82;21147;-70
2021/01/02 02:21:00;;;;;;;8.60;5.83;;;;;;;2.05;79.98;99490.66;1732687;83;21319;-70
2021/01/02 02:23:40;;;;;;;7.28;5.30;;;;;;;2.01;80.38;99485.75;1672910;84;21191;-70
2021/01/02 02:26:17;;;;;;;10.05;6.40;;;;;;;1.97;80.73;99498.63;1722395;83;21648;-70
2021/01/02 02:29:10;;;;;;;10.55;6.17;;;;;;;1.92;80.54;99501.03;1702830;84;21321;-70
2021/01/02 02:31:45;;;;;;;9.43;6.33;;;;;;;1.89;80.09;99506.91;1717632;83;21163;-70
2021/01/02 02:34:14;;;;;;;12.00;6.17;;;;;;;1.88;79.97;99507.86;1694424;84;21183;-70
2021/01/02 02:36:42;;;;;;;8.58;5.85;;;;;;;1.84;80.40;99518.13;1726568;83;21206;-71
2021/01/02 02:39:13;;;;;;;9.68;6.90;;;;;;;1.83;80.36;99519.88;1700886;83;21301;-70
2021/01/02 02:41:46;;;;;;;9.35;6.33;;;;;;;1.80;80.77;99523.17;1706812;84;21186;-70
2021/01/02 02:44:17;;;;;;;10.80;6.20;;;;;;;1.79;80.99;99526.22;1732435;82;21223;-70
2021/01/02 02:46:45;;;;;;;8.70;5.95;;;;;;;1.83;80.66;99524.26;1700281;84;21202;-71
2021/01/02 02:49:16;;;;;;;10.78;6.65;;;;;;;1.84;80.38;99533.77;1714633;83;21136;-70
2021/01/02 02:51:58;;;;;;;10.35;6.53;;;;;;;1.82;80.86;99534.33;1702892;84;21183;-70
2021/01/02 02:54:26;;;;;;;9.88;6.62;;;;;;;1.80;80.65;99530.98;1725843;83;21596;-70
2021/01/02 02:56:53;;;;;;;10.05;6.20;;;;;;;1.76;80.52;99531.64;1695060;83;21210;-70
2021/01/02 02:59:23;;;;;;;11.48;6.58;;;;;;;1.72;80.67;99529.70;1706550;83;21160;-70
2021/01/02 03:01:50;;;;;;;10.48;6.70;;;;;;;1.73;80.81;99531.83;1702580;84;21178;-70
2021/01/02 03:04:18;;;;;;;13.35;6.40;;;;;;;1.69;80.00;99548.12;1725439;83;21202;-69
2021/01/02 03:06:46;;;;;;;9.55;6.47;;;;;;;1.62;80.34;99553.81;1721903;83;21167;-70
2021/01/02 03:09:14;;;;;;;10.48;6.80;;;;;;;1.54;79.47;99560.33;1694308;83;21160;-70
2021/01/02 03:11:42;;;;;;;9.75;6.78;;;;;;;1.48;79.74;99561.19;1698322;84;21178;-70
2021/01/02 03:14:09;;;;;;;8.60;5.97;;;;;;;1.45;79.73;99565.27;1706616;83;21175;-70
2021/01/02 03:16:37;;;;;;;10.68;6.65;;;;;;;1.44;79.79;99568.79;1697112;84;21218;-70
2021/01/02 03:19:05;;;;;;;12.05;6.50;;;;;;;1.43;80.28;99571.05;1732559;83;21191;-70
2021/01/02 03:21:33;;;;;;;11.38;6.72;;;;;;;1.40;80.15;99571.22;1697969;84;21595;-70
2021/01/02 03:24:01;;;;;;;10.78;6.75;;;;;;;1.36;80.64;99566.66;1716343;83;21223;-70
2021/01/02 03:26:28;;;;;;;9.70;6.80;;;;;;;1.36;81.30;99578.38;1702808;84;21175;-70
2021/01/02 03:28:56;;;;;;;10.15;6.40;;;;;;;1.35;81.36;99577.55;1732524;83;21179;-70
2021/01/02 03:31:24;;;;;;;10.05;7.00;;;;;;;1.35;81.56;99574.11;1701083;84;21177;-71
2021/01/02 03:33:52;;;;;;;10.93;6.65;;;;;;;1.40;81.75;99569.91;1727661;83;21192;-70
2021/01/02 03:36:20;;;;;;;8.80;6.28;;;;;;;1.40;81.53;99566.00;1691645;84;21175;-70
2021/01/02 03:38:56;;;;;;;10.40;6.90;;;;;;;1.33;81.72;99567.69;1723314;83;21324;-70
2021/01/02 03:41:25;;;;;;;10.50;6.33;;;;;;;1.24;82.06;99576.05;1708761;83;21166;-70
2021/01/02 03:43:52;;;;;;;8.38;5.72;;;;;;;1.19;82.51;99581.98;1704634;84;21182;-70
2021/01/02 03:46:24;;;;;;;9.88;6.12;;;;;;;1.14;82.72;99574.90;1727803;83;21183;-70
2021/01/02 03:48:51;;;;;;;8.83;6.20;;;;;;;1.11;82.87;99577.23;1730869;83;21180;-70
2021/01/02 03:51:26;;;;;;;8.25;6.20;;;;;;;1.10;83.21;99589.05;1694810;84;21190;-70
2021/01/02 03:53:54;;;;;;;7.62;6.15;;;;;;;1.06;83.41;99586.25;1713370;83;21174;-70
2021/01/02 03:56:22;;;;;;;7.47;5.75;;;;;;;1.01;83.84;99594.34;1689714;83;21188;-70
2021/01/02 03:58:50;;;;;;;10.03;5.97;;;;;;;0.97;84.05;99598.03;1701173;84;21194;-70
2021/01/02 04:01:18;;;;;;;11.30;6.55;;;;;;;0.92;84.36;99607.42;1697368;83;21184;-70
2021/01/02 04:03:46;;;;;;;7.80;5.37;;;;;;;0.91;84.44;99613.55;1702873;84;21182;-70
2021/01/02 04:06:14;;;;;;;8.65;5.60;;;;;;;0.93;84.31;99609.55;1684334;82;21274;-70
2021/01/02 04:08:41;;;;;;;8.58;5.80;;;;;;;0.88;84.39;99610.28;1713004;83;21312;-70
2021/01/02 04:11:10;;;;;;;8.20;5.78;;;;;;;0.80;84.99;99614.63;1704216;83;21151;-70
2021/01/02 04:13:38;;;;;;;7.53;5.70;;;;;;;0.76;85.54;99620.94;1704311;83;21151;-69
2021/01/02 04:16:07;;;;;;;9.83;6.20;;;;;;;0.71;85.90;99625.56;1704155;83;21171;-70
2021/01/02 04:18:34;;;;;;;8.30;5.78;;;;;;;0.65;86.34;99629.34;1704080;83;21163;-70
2021/01/02 04:21:03;;;;;;;7.50;5.42;;;;;;;0.64;86.56;99625.55;1730326;83;21319;-70
2021/01/02 04:23:30;;;;;;;9.60;6.78;;;;;;;0.62;86.89;99630.84;1706741;84;21780;-70
2021/01/02 04:25:58;;;;;;;8.23;6.05;;;;;;;0.56;87.33;99635.93;1706472;83;21199;-70
2021/01/02 04:28:26;;;;;;;10.63;6.47;;;;;;;0.51;87.90;99637.94;1700023;84;21249;-70
2021/01/02 04:30:54;;;;;;;8.03;6.08;;;;;;;0.46;88.36;99647.75;1732105;83;21600;-69
2021/01/02 04:33:21;;;;;;;9.28;6.40;;;;;;;0.43;88.86;99654.89;1699479;84;21174;-71
2021/01/02 04:35:49;;;;;;;8.43;5.53;;;;;;;0.38;89.22;99654.69;1727031;83;21616;-70
2021/01/02 04:38:18;;;;;;;9.53;6.28;;;;;;;0.37;89.46;99663.44;1706688;84;21337;-70
2021/01/02 04:40:45;;;;;;;9.45;6.50;;;;;;;0.36;89.95;99666.94;1732490;83;21596;-70
2021/01/02 04:43:14;;;;;;;10.48;6.60;;;;;;;0.36;90.39;99660.91;1698972;84;21155;-70
2021/01/02 04:45:42;;;;;;;9.63;6.78;;;;;;;0.37;90.69;99669.94;1712409;83;21320;-69
2021/01/02 04:48:11;;;;;;;10.72;6.62;;;;;;;0.41;90.93;99677.55;1701014;84;21247;-69
2021/01/02 04:50:40;;;;;;;10.40;6.22;;;;;;;0.44;90.75;99669.12;1717916;83;21182;-71
2021/01/02 04:53:08;;;;;;;8.90;6.25;;;;;;;0.49;89.87;99674.09;1668000;83;21144;-70
2021/01/02 04:55:36;;;;;;;9.80;6.95;;;;;;;0.50;89.30;99672.67;1671589;84;21178;-70
2021/01/02 04:58:05;;;;;;;11.78;7.40;;;;;;;0.51;89.26;99683.48;1721293;82;21178;-70
2021/01/02 05:00:37;;;;;;;12.40;7.60;;;;;;;0.53;88.98;99692.04;1671701;84;21620;-70
2021/01/02 05:03:04;;;;;;;10.72;6.72;;;;;;;0.56;88.16;99688.42;1730560;83;21321;-70
2021/01/02 05:05:34;;;;;;;9.90;6.53;;;;;;;0.57;87.37;99688.81;1695419;84;21187;-69
2021/01/02 05:08:03;;;;;;;9.83;7.08;;;;;;;0.61;86.92;99702.50;1708206;83;21179;-70
2021/01/02 05:10:32;;;;;;;10.10;6.87;;;;;;;0.59;87.03;99694.77;1692006;83;21151;-69
2021/01/02 05:13:15;;;;;;;12.60;7.78;;;;;;;0.58;87.68;99703.05;1705482;84;21182;-70
2021/01/02 05:15:43;;;;;;;10.88;7.00;;;;;;;0.58;87.66;99704.34;1722087;83;21608;-69
2021/01/02 05:18:13;;;;;;;13.43;8.00;;;;;;;0.57;87.57;99710.46;1701279;84;21173;-70
2021/01/02 05:20:41;;;;;;;9.48;6.90;;;;;;;0.54;87.76;99709.34;1722309;83;21175;-69
2021/01/02 05:23:09;;;;;;;10.53;7.10;;;;;;;0.55;87.52;99716.69;1711926;83;21281;-69
2021/01/02 05:25:37;;;;;;;12.73;8.18;;;;;;;0.53;87.71;99717.23;1708677;83;21199;-69
2021/01/02 05:28:07;;;;;;;11.28;7.33;;;;;;;0.48;87.52;99717.94;1694548;84;21337;-69
2021/01/02 05:30:36;;;;;;;12.55;8.28;;;;;;;0.42;87.81;99733.89;1656665;83;21192;-69
2021/01/02 05:33:11;;;;;;;11.97;7.75;;;;;;;0.37;88.13;99734.98;1683832;83;21144;-69
2021/01/02 05:35:45;;;;;;;12.65;7.87;;;;;;;0.35;88.36;99738.56;1702949;84;21325;-69
2021/01/02 05:38:25;;;;;;;12.82;7.53;;;;;;;0.38;88.68;99744.45;1725892;83;21318;-69
2021/01/02 05:40:58;;;;;;;10.25;7.45;;;;;;;0.41;88.84;99746.50;1694403;84;21191;-69
2021/01/02 05:43:28;;;;;;;12.55;8.58;;;;;;;0.42;88.33;99756.84;1682742;83;21160;-69
2021/01/02 05:45:56;;;;;;;11.45;7.80;;;;;;;0.38;88.38;99757.92;1723480;83;21607;-69
2021/01/02 05:48:27;;;;;;;11.10;7.20;;;;;;;0.38;88.63;99773.54;1702878;84;21150;-69
2021/01/02 05:50:59;;;;;;;11.45;7.70;;;;;;;0.42;88.60;99760.73;1730473;83;21227;-69
2021/01/02 05:53:30;;;;;;;12.40;8.05;;;;;;;0.46;88.37;99776.56;1713133;83;21301;-70
2021/01/02 05:56:11;;;;;;;11.45;7.35;;;;;;;0.45;88.23;99776.20;1697737;83;21326;-69
2021/01/02 05:58:42;;;;;;;11.63;7.67;;;;;;;0.44;88.27;99785.38;1700194;84;21186;-70
2021/01/02 06:01:15;;;;;;;10.88;7.35;;;;;;;0.42;87.93;99784.16;1732182;83;21187;-69
2021/01/02 06:03:47;;;;;;;11.90;7.78;;;;;;;0.46;88.22;99792.64;1674891;84;21595;-69
2021/01/02 06:06:18;;;;;;;13.00;8.08;;;;;;;0.54;88.49;99800.44;1721060;82;21340;-69
2021/01/02 06:08:48;;;;;;;11.60;8.05;;;;;;;0.61;88.39;99797.50;1712200;83;21195;-69
2021/01/02 06:11:21;;;;;;;11.28;7.75;;;;;;;0.68;88.09;99804.06;1716979;83;21195;-69
2021/01/02 06:13:53;;;;;;;11.55;7.30;;;;;;;0.72;87.55;99801.66;1720944;83;21317;-69
2021/01/02 06:16:22;;;;;;;12.28;7.58;;;;;;;0.74;87.22;99806.33;1703642;84;21198;-69
2021/01/02 06:18:50;;;;;;;9.78;7.03;;;;;;;0.80;86.77;99815.09;1705392;83;21196;-69
2021/01/02 06:21:19;;;;;;;11.15;7.75;;;;;;;0.85;86.96;99815.70;1693994;84;21195;-69
2021/01/02 06:23:47;;;;;;;10.40;7.40;;;;;;;0.89;86.34;99809.39;1724098;83;21179;-69
2021/01/02 06:26:16;;;;;;;10.60;7.30;;;;;;;0.90;85.72;99821.97;1669776;84;21710;-69
2021/01/02 06:28:45;;;;;;;12.75;7.90;;;;;;;0.86;85.49;99817.83;1684117;83;21183;-69
2021/01/02 06:31:15;;;;;;;9.90;7.42;;;;;;;0.84;85.38;99821.84;1697005;84;21180;-70
2021/01/02 06:33:49;;;;;;;12.80;7.67;;;;;;;0.83;85.23;99820.62;1702482;83;21354;-69
2021/01/02 06:36:30;;;;;;;11.85;7.87;;;;;;;0.82;85.39;99827.57;1705681;84;21324;-69
2021/01/02 06:39:19;;;;;;;11.97;8.05;;;;;;;0.81;85.47;99835.48;1700880;84;21165;-69
2021/01/02 06:41:48;;;;;;;12.58;8.35;;;;;;;0.78;85.96;99841.68;1688331;84;21187;-69
2021/01/02 06:44:40;;;;;;;13.10;7.25;;;;;;;0.85;86.50;99845.64;1726908;83;21170;-69
2021/01/02 06:47:25;;;;;;;14.25;7.90;;;;;;;0.90;86.56;99845.41;1669816;84;21309;-69
2021/01/02 06:49:53;;;;;;;14.23;7.80;;;;;;;0.98;86.67;99842.39;1698468;83;21176;-69
2021/01/02 06:52:34;;;;;;;11.90;8.15;;;;;;;1.08;86.28;99848.77;1705689;84;21706;-69
2021/01/02 06:55:23;;;;;;;12.70;8.23;;;;;;;1.11;85.75;99856.42;1731353;83;21155;-69
2021/01/02 06:57:52;;;;;;;13.68;8.38;;;;;;;1.12;85.59;99858.95;1700829;84;21186;-69
2021/01/02 07:00:25;;;;;;;13.15;8.75;;;;;;;1.19;85.46;99864.65;1697951;83;21136;-70
2021/01/02 07:02:56;;;;;;;12.65;8.13;;;;;;;1.24;85.44;99873.06;1698164;84;21960;-69
2021/01/02 07:05:44;;;;;;;11.93;7.70;;;;;;;1.30;84.88;99872.72;1706893;83;21199;-69
2021/01/02 07:08:42;;;;;;;10.43;7.62;;;;;;;1.35;84.68;99875.91;1731441;83;21322;-69
2021/01/02 07:11:44;;;;;;;11.15;8.28;;;;;;;1.42;84.69;99872.96;1704144;84;21194;-69
2021/01/02 07:14:24;;;;;;;11.73;8.03;;;;;;;1.45;84.86;99874.11;1727102;83;21218;-69
2021/01/02 07:17:02;;;;;;;12.13;8.23;;;;;;;1.52;84.73;99879.36;1720213;83;22520;-69
2021/01/02 07:19:47;;;;;;;12.45;9.05;;;;;;;1.55;84.60;99883.08;1731987;83;21195;-69
2021/01/02 07:22:24;;;;;;;12.18;8.00;;;;;;;1.60;84.37;99888.05;1674080;84;21174;-69
2021/01/02 07:24:58;;;;;;;11.28;7.60;;;;;;;1.62;83.71;99887.50;1714341;82;21139;-69
2021/01/02 07:27:36;;;;;;;14.03;8.75;;;;;;;1.68;83.67;99892.36;1717589;83;21597;-70
2021/01/02 07:30:11;;;;;;;11.63;8.15;;;;;;;1.73;83.85;99891.17;1700940;84;21203;-69
2021/01/02 07:32:43;;;;;;;13.22;8.85;;;;;;;1.83;83.57;99890.66;1702166;83;21168;-69
2021/01/02 07:35:13;;;;;;;11.83;8.10;;;;;;;1.88;83.10;99893.38;1669906;84;21171;-68
2021/01/02 07:37:44;;;;;;;13.55;8.75;;;;;;;1.96;82.62;99898.15;1692421;83;21643;-68
2021/01/02 07:40:15;;;;;;;11.25;7.50;;;;;;;1.98;81.91;99904.59;1729718;83;21183;-69
2021/01/02 07:42:50;;;;;;;12.93;8.18;;;;;;;1.99;81.71;99911.03;1674141;84;21321;-69
2021/01/02 07:45:24;;;;;;;12.47;7.72;;;;;;;2.03;81.20;99920.35;1708229;83;21176;-69
2021/01/02 07:47:57;;;;;;;12.80;8.50;;;;;;;2.04;81.33;99914.66;1688928;83;21156;-70
2021/01/02 07:50:28;;;;;;;14.50;8.78;;;;;;;2.06;81.70;99914.97;1672437;84;21177;-70
2021/01/02 07:53:04;;;;;;;14.25;8.25;;;;;;;2.13;81.07;99925.44;1705375;83;21615;-70
2021/01/02 07:55:33;;;;;;;12.07;7.67;;;;;;;2.18;80.90;99929.55;1703005;84;21208;-70
2021/01/02 07:58:01;;;;;;;13.95;8.73;;;;;;;2.24;80.72;99926.09;1721757;83;21196;-70
2021/01/02 08:00:29;;;;;;;14.80;8.70;;;;;;;2.27;80.42;99931.15;1701861;84;21210;-71
2021/01/02 08:03:04;;;;;;;11.30;8.00;;;;;;;2.34;80.08;99938.17;1732747;83;21181;-70
2021/01/02 08:05:32;;;;;;;15.30;9.18;;;;;;;2.38;79.62;99943.58;1699188;84;21312;-70
2021/01/02 08:08:01;;;;;;;12.98;8.28;;;;;;;2.38;79.67;99950.11;1716933;83;21544;-69
2021/01/02 08:10:31;;;;;;;13.05;8.63;;;;;;;2.39;79.56;99942.63;1715331;83;21167;-69
2021/01/02 08:13:02;;;;;;;13.13;8.60;;;;;;;2.45;79.69;99944.05;1714292;83;21207;-69
2021/01/02 08:15:33;;;;;;;12.93;8.27;;;;;;;2.49;79.47;99941.19;1705538;84;21154;-70
2021/01/02 08:18:08;;;;;;;13.40;8.55;;;;;;;2.56;79.37;99946.03;1732637;83;22152;-70
2021/01/02 08:20:39;;;;;;;14.47;8.55;;;;;;;2.61;79.26;99950.53;1693271;83;21333;-69
2021/01/02 08:23:18;;;;;;;13.10;8.45;;;;;;;2.70;78.98;99955.20;1719744;83;21329;-69
2021/01/02 08:25:46;;;;;;;13.25;8.75;;;;;;;2.83;78.71;99964.46;1692331;84;21179;-70
2021/01/02 08:28:14;;;;;;;11.15;7.85;;;;;;;2.94;78.44;99958.56;1691519;83;21207;-72
2021/01/02 08:30:42;;;;;;;12.23;8.70;;;;;;;3.08;78.25;99963.81;1696373;84;21308;-69
2021/01/02 08:33:10;;;;;;;14.58;9.55;;;;;;;3.25;77.56;99963.61;1723004;83;21184;-69
2021/01/02 08:35:43;;;;;;;12.90;9.08;;;;;;;3.42;77.01;99966.95;1670333;83;21179;-68
2021/01/02 08:38:12;;;;;;;12.88;9.33;;;;;;;3.61;75.88;99972.73;1702848;83;21206;-68
2021/01/02 08:40:49;;;;;;;13.90;8.28;;;;;;;3.74;75.40;99974.55;1708864;83;21191;-68
2021/01/02 08:43:22;;;;;;;12.53;8.13;;;;;;;3.84;74.17;99973.88;1700088;84;21154;-68
2021/01/02 08:45:52;;;;;;;13.40;9.03;;;;;;;3.98;73.78;99977.39;1708214;83;21647;-69
2021/01/02 08:48:20;;;;;;;12.88;9.05;;;;;;;4.15;73.30;99977.61;1703698;83;21232;-69
2021/01/02 08:50:49;;;;;;;11.75;8.18;;;;;;;4.28;72.69;99975.41;1714441;83;21195;-68
2021/01/02 08:53:36;;;;;;;13.38;8.58;;;;;;;4.39;72.07;99973.38;1697741;84;21187;-69
2021/01/02 08:56:27;;;;;;;11.60;8.20;;;;;;;4.41;71.21;99974.59;1730622;83;21642;-68
2021/01/02 08:58:54;;;;;;;12.43;8.40;;;;;;;4.47;71.28;99973.72;1691032;84;21624;-69
2021/01/02 09:01:22;;;;;;;12.03;8.10;;;;;;;4.65;70.55;99978.66;1710264;83;21172;-70
2021/01/02 09:03:50;;;;;;;11.25;8.55;;;;;;;4.74;69.62;99976.73;1696746;84;21327;-70
2021/01/02 09:06:25;;;;;;;11.30;8.00;;;;;;;5.33;69.10;99980.59;1691677;83;21235;-69
2021/01/02 09:09:06;;;;;;;12.00;8.08;;;;;;;5.80;66.79;99982.97;1701794;84;21158;-69
2021/01/02 09:11:49;;;;;;;11.90;8.33;;;;;;;6.51;65.65;99968.16;1726700;83;21191;-69
2021/01/02 09:14:18;;;;;;;12.63;8.20;;;;;;;7.68;62.06;99963.55;1672212;84;21312;-69
2021/01/02 09:17:01;;;;;;;10.95;7.80;;;;;;;8.80;58.77;99962.77;1729134;83;21255;-69
2021/01/02 09:19:30;;;;;;;11.22;8.18;;;;;;;9.87;54.48;99965.81;1700915;83;21313;-69
2021/01/02 09:21:58;;;;;;;10.38;7.90;;;;;;;10.99;52.12;99965.36;1720527;83;21175;-69
2021/01/02 09:24:28;;;;;;;10.63;7.85;;;;;;;11.96;48.66;99962.77;1697583;84;21214;-69
2021/01/02 09:26:55;;;;;;;10.90;7.80;;;;;;;12.76;46.96;99968.09;1683863;83;21180;-68
2021/01/02 09:29:24;;;;;;;10.38;8.25;;;;;;;13.50;44.97;99970.67;1703905;84;21199;-68
2021/01/02 09:31:51;;;;;;;9.63;7.55;;;;;;;14.07;43.13;99971.34;1693996;83;21167;-68
2021/01/02 09:34:18;;;;;;;10.25;7.42;;;;;;;13.99;41.78;99963.37;1708312;83;21219;-68
2021/01/02 09:36:51;;;;;;;9.53;7.87;;;;;;;13.87;41.95;99968.64;1708243;83;21325;-68
2021/01/02 09:39:24;;;;;;;10.95;7.78;;;;;;;13.55;41.15;99967.55;1718214;83;21166;-70
2021/01/02 09:41:52;;;;;;;9.13;7.50;;;;;;;12.94;42.52;99969.36;1722250;83;21175;-69
2021/01/02 09:44:20;;;;;;;10.48;7.58;;;;;;;12.37;43.45;99969.78;1669231;84;21341;-69
2021/01/02 09:46:51;;;;;;;12.03;7.83;;;;;;;12.32;43.83;99965.42;1711066;83;21137;-69
2021/01/02 09:49:19;;;;;;;8.63;7.45;;;;;;;12.62;43.33;99969.00;1693436;84;21186;-69
2021/01/02 09:51:47;;;;;;;10.60;7.55;;;;;;;13.04;42.91;99982.55;1722429;83;21187;-68
2021/01/02 09:54:15;;;;;;;9.03;6.90;;;;;;;13.64;41.59;99971.08;1694457;83;21214;-68
2021/01/02 09:56:47;;;;;;;11.12;7.35;;;;;;;14.28;39.90;99967.39;1692927;83;21211;-68
2021/01/02 09:59:15;;;;;;;11.50;8.30;;;;;;;14.79;39.19;99972.56;1696073;84;21623;-69
2021/01/02 10:01:42;;;;;;;9.50;8.00;;;;;;;15.31;38.08;99977.44;1726845;83;21233;-68
2021/01/02 10:04:10;;;;;;;9.40;7.65;;;;;;;15.61;38.06;99971.81;1693375;84;21300;-68
2021/01/02 10:06:45;;;;;;;12.07;8.53;;;;;;;16.03;37.04;99977.30;1721941;83;21147;-68
2021/01/02 10:09:12;;;;;;;11.80;8.48;;;;;;;16.43;36.03;99976.67;1670440;84;21195;-69
2021/01/02 10:11:43;;;;;;;14.50;10.15;;;;;;;16.88;35.67;99971.48;1722174;83;21204;-68
2021/01/02 10:14:11;;;;;;;12.40;9.33;;;;;;;17.18;34.13;99970.99;1655987;84;21742;-69
2021/01/02 10:16:39;;;;;;;12.37;8.75;;;;;;;17.43;33.92;99964.02;1664986;84;21135;-68
2021/01/02 10:19:10;;;;;;;13.15;9.55;;;;;;;17.58;34.01;99963.52;1690899;84;21329;-69
2021/01/02 10:21:38;;;;;;;11.55;8.68;;;;;;;17.75;33.43;99969.97;1732116;83;21329;-69
2021/01/02 10:24:07;;;;;;;12.15;8.40;;;;;;;17.89;33.20;99966.47;1692882;84;21226;-68
2021/01/02 10:26:34;;;;;;;9.45;7.90;;;;;;;18.20;32.23;99959.49;1681523;83;21176;-70
2021/01/02 10:29:04;;;;;;;10.10;8.30;;;;;;;18.25;32.04;99968.27;1681888;84;21207;-68
2021/01/02 10:31:32;;;;;;;10.28;7.92;;;;;;;18.34;32.21;99968.98;1677079;83;21663;-68
2021/01/02 10:34:00;;;;;;;10.63;8.10;;;;;;;18.49;31.52;99970.25;1680472;84;21607;-68
2021/01/02 10:36:28;;;;;;;8.48;6.83;;;;;;;18.66;31.82;99975.64;1699545;84;21223;-68
2021/01/02 10:38:56;;;;;;;11.80;7.85;;;;;;;18.97;30.34;99966.44;1717942;83;21588;-68
2021/01/02 10:41:24;;;;;;;10.90;8.30;;;;;;;19.01;30.66;99973.05;1692863;84;21206;-68
2021/01/02 10:43:52;;;;;;;10.93;8.28;;;;;;;19.20;30.30;99976.36;1719351;83;21580;-69
2021/01/02 10:46:19;;;;;;;11.90;8.40;;;;;;;19.28;29.92;99974.03;1704791;84;21749;-68
2021/01/02 10:48:47;;;;;;;10.48;8.73;;;;;;;19.10;30.04;99975.90;1719180;83;21212;-69
2021/01/02 10:51:16;;;;;;;10.23;8.65;;;;;;;18.81;30.37;99975.09;1726708;83;21179;-69
2021/01/02 10:53:44;;;;;;;10.78;8.68;;;;;;;18.77;30.25;99980.47;1704113;83;21191;-69
2021/01/02 10:56:18;;;;;;;9.38;7.97;;;;;;;18.94;30.25;99983.71;1703830;83;21160;-69
2021/01/02 10:58:45;;;;;;;10.50;8.15;;;;;;;18.91;29.86;99977.91;1704842;84;21212;-69
2021/01/02 11:01:14;;;;;;;12.13;9.23;;;;;;;18.98;29.90;99970.27;1726899;82;21136;-69
2021/01/02 11:03:41;;;;;;;9.20;7.80;;;;;;;19.17;29.97;99972.75;1699572;84;21210;-67
2021/01/02 11:06:10;;;;;;;10.72;8.13;;;;;;;19.22;29.96;99966.78;1708177;83;21333;-68
2021/01/02 11:08:38;;;;;;;13.22;9.28;;;;;;;19.32;29.69;99967.76;1678213;83;21680;-69
2021/01/02 11:11:06;;;;;;;11.15;9.13;;;;;;;19.17;29.61;99974.09;1671109;84;21339;-69
2021/01/02 11:13:35;;;;;;;10.13;8.80;;;;;;;19.14;29.79;99970.45;1694995;82;21131;-68
2021/01/02 11:16:05;;;;;;;11.60;8.78;;;;;;;19.10;29.87;99962.50;1716829;83;21622;-68
2021/01/02 11:18:32;;;;;;;11.70;8.30;;;;;;;18.96;29.58;99975.48;1676141;83;21654;-67
2021/01/02 11:21:00;;;;;;;11.95;8.95;;;;;;;18.63;30.09;99976.05;1720190;83;21180;-70
2021/01/02 11:23:28;;;;;;;11.65;8.45;;;;;;;18.35;30.24;99971.48;1669698;84;21179;-69
2021/01/02 11:25:55;;;;;;;11.53;8.50;;;;;;;18.07;30.79;99976.76;1707482;83;21731;-70
2021/01/02 11:28:23;;;;;;;10.30;8.15;;;;;;;17.58;31.57;99982.23;1697386;84;21169;-69
2021/01/02 11:30:52;;;;;;;9.78;7.75;;;;;;;16.85;32.10;99988.71;1731499;83;21148;-69
2021/01/02 11:33:20;;;;;;;10.08;7.72;;;;;;;15.98;33.33;99993.00;1701691;84;21634;-70
2021/01/02 11:35:49;;;;;;;10.50;8.43;;;;;;;15.23;34.78;99992.13;1733542;83;21187;-69
2021/01/02 11:38:16;;;;;;;11.10;8.35;;;;;;;14.46;36.11;99989.34;1673935;84;21619;-68
2021/01/02 11:40:44;;;;;;;12.33;8.50;;;;;;;13.67;37.93;99996.84;1714451;83;21176;-68
2021/01/02 11:43:11;;;;;;;11.12;8.35;;;;;;;13.04;39.41;100001.13;1711538;83;21612;-69
2021/01/02 11:45:39;;;;;;;11.12;8.43;;;;;;;12.41;40.79;99995.00;1701789;84;21396;-68
2021/01/02 11:48:07;;;;;;;13.03;9.00;;;;;;;12.02;41.69;100002.73;1704081;83;21171;-69
2021/01/02 11:50:35;;;;;;;13.18;8.95;;;;;;;11.68;42.51;99996.38;1717473;83;21148;-69
2021/01/02 11:53:03;;;;;;;11.90;8.50;;;;;;;11.34;43.57;100002.25;1709301;83;21199;-69
2021/01/02 11:55:32;;;;;;;11.57;8.10;;;;;;;11.08;44.01;99998.91;1701109;84;21130;-70
2021/01/02 11:58:01;;;;;;;9.58;7.70;;;;;;;10.77;44.58;100014.97;1722410;83;21179;-71
2021/01/02 12:00:34;;;;;;;11.95;8.53;;;;;;;10.45;45.39;100012.12;1699148;84;21194;-70